createdAt,value
2019-04-20T00:00:56.030Z,144.37
2019-04-20T00:03:23.700Z,146.05
2019-04-20T00:05:52.988Z,143.68
2019-04-20T00:08:25.188Z,143.37
2019-04-20T00:10:57.018Z,143.22
2019-04-20T00:13:32.317Z,145.02
2019-04-20T00:15:51.349Z,142.95
2019-04-20T00:18:19.209Z,143.47
2019-04-20T00:20:57.566Z,147.22
2019-04-20T00:23:33.444Z,143.43
2019-04-20T00:26:52.128Z,143.17
2019-04-20T00:29:10.338Z,143.17
2019-04-20T00:31:38.067Z,142.87
2019-04-20T00:34:02.411Z,145.10
2019-04-20T00:36:22.212Z,142.25
2019-04-20T00:38:53.627Z,143.07
2019-04-20T00:41:20.744Z,143.57
2019-04-20T00:43:49.153Z,142.65
2019-04-20T00:46:26.354Z,143.22
2019-04-20T00:48:57.231Z,143.80
2019-04-20T00:51:32.672Z,143.35
2019-04-20T00:53:48.989Z,144.45
2019-04-20T00:56:14.139Z,143.60
2019-04-20T00:58:52.299Z,144.15
2019-04-20T01:01:32.197Z,144.25
2019-04-20T01:04:04.587Z,143.93
2019-04-20T01:06:41.185Z,144.90
2019-04-20T01:09:05.509Z,143.00
2019-04-20T01:11:39.953Z,143.43
2019-04-20T01:14:09.403Z,143.35
2019-04-20T01:16:43.133Z,144.00
2019-04-20T01:19:04.744Z,143.70
2019-04-20T01:21:33.882Z,143.15
2019-04-20T01:24:04.927Z,143.20
2019-04-20T01:26:34.663Z,143.47
2019-04-20T01:29:12.160Z,143.10
2019-04-20T01:31:38.531Z,144.07
2019-04-20T01:34:08.251Z,144.02
2019-04-20T01:36:46.151Z,145.15
2019-04-20T01:39:11.168Z,144.35
2019-04-20T01:41:31.252Z,145.30
2019-04-20T01:43:58.556Z,143.82
2019-04-20T01:46:28.360Z,145.00
2019-04-20T01:48:54.884Z,145.92
2019-04-20T01:51:26.975Z,145.00
2019-04-20T01:54:14.785Z,144.60
2019-04-20T01:56:40.411Z,145.45
2019-04-20T01:59:44.812Z,144.13
2019-04-20T02:02:47.394Z,144.85
2019-04-20T02:05:17.952Z,144.77
2019-04-20T02:07:46.585Z,142.00
2019-04-20T02:10:14.752Z,144.40
2019-04-20T02:12:42.293Z,143.60
2019-04-20T02:15:20.043Z,142.93
2019-04-20T02:17:46.692Z,142.93
2019-04-20T02:20:31.913Z,143.13
2019-04-20T02:22:55.352Z,142.55
2019-04-20T02:25:12.159Z,142.47
2019-04-20T02:27:47.150Z,142.77
2019-04-20T02:30:39.632Z,142.55
2019-04-20T02:33:37.882Z,144.37
2019-04-20T02:39:05.550Z,143.97
2019-04-20T02:41:27.569Z,143.32
2019-04-20T02:43:57.694Z,143.47
2019-04-20T02:46:09.001Z,143.05
2019-04-20T02:48:41.600Z,142.03
2019-04-20T02:51:09.054Z,143.30
2019-04-20T02:53:57.478Z,143.55
2019-04-20T02:58:41.702Z,143.70
2019-04-20T03:01:05.078Z,143.30
2019-04-20T03:03:22.551Z,144.00
2019-04-20T03:05:52.056Z,143.55
2019-04-20T03:08:29.346Z,145.10
2019-04-20T03:11:05.832Z,144.15
2019-04-20T03:13:26.204Z,145.65
2019-04-20T03:15:56.436Z,143.72
2019-04-20T03:18:27.664Z,143.90
2019-04-20T03:21:00.790Z,144.70
2019-04-20T03:23:29.825Z,143.90
2019-04-20T03:26:06.434Z,143.57
2019-04-20T03:29:01.355Z,145.47
2019-04-20T03:32:08.512Z,143.02
2019-04-20T03:34:38.461Z,143.22
2019-04-20T03:36:50.042Z,142.98
2019-04-20T03:39:11.500Z,143.78
2019-04-20T03:41:26.401Z,142.87
2019-04-20T03:43:47.747Z,142.43
2019-04-20T03:46:19.958Z,142.55
2019-04-20T03:48:59.914Z,143.68
2019-04-20T03:51:40.143Z,142.40
2019-04-20T03:54:18.425Z,143.57
2019-04-20T03:57:21.251Z,143.15
2019-04-20T03:59:56.108Z,142.70
2019-04-20T04:03:08.303Z,143.13
2019-04-20T04:05:34.142Z,143.07
2019-04-20T04:07:58.019Z,142.77
2019-04-20T04:10:28.343Z,143.20
2019-04-20T04:13:22.925Z,143.15
2019-04-20T04:15:57.588Z,142.70
2019-04-20T04:18:29.136Z,141.70
2019-04-20T04:20:58.155Z,142.22
2019-04-20T04:23:36.624Z,143.57
2019-04-20T04:26:15.034Z,143.00
2019-04-20T04:28:37.224Z,142.60
2019-04-20T04:31:08.171Z,144.65
2019-04-20T04:36:00.362Z,144.25
2019-04-20T04:38:37.361Z,143.68
2019-04-20T04:41:11.232Z,144.75
2019-04-20T04:43:34.209Z,142.82
2019-04-20T04:45:41.075Z,143.02
2019-04-20T04:48:16.763Z,142.18
2019-04-20T04:50:48.334Z,143.62
2019-04-20T04:53:17.057Z,143.80
2019-04-20T04:55:47.702Z,145.72
2019-04-20T04:58:14.879Z,145.55
2019-04-20T05:00:51.545Z,147.60
2019-04-20T05:03:45.007Z,145.50
2019-04-20T05:06:35.511Z,145.35
2019-04-20T05:08:56.827Z,145.07
2019-04-20T05:11:21.813Z,145.28
2019-04-20T05:13:56.909Z,145.80
2019-04-20T05:16:43.469Z,146.75
2019-04-20T05:19:13.472Z,148.78
2019-04-20T05:22:11.077Z,145.92
2019-04-20T05:24:43.959Z,147.43
2019-04-20T05:27:51.051Z,146.90
2019-04-20T05:30:01.518Z,145.50
2019-04-20T05:32:39.684Z,146.18
2019-04-20T05:35:25.501Z,147.25
2019-04-20T05:37:59.198Z,145.35
2019-04-20T05:40:16.470Z,145.60
2019-04-20T05:42:54.140Z,146.22
2019-04-20T05:45:16.492Z,147.60
2019-04-20T05:47:48.378Z,145.25
2019-04-20T05:50:15.235Z,146.18
2019-04-20T05:55:16.218Z,145.82
2019-04-20T05:57:51.876Z,146.77
2019-04-20T06:00:23.337Z,146.53
2019-04-20T06:02:46.824Z,146.62
2019-04-20T06:05:36.475Z,146.70
2019-04-20T06:07:48.801Z,145.85
2019-04-20T06:10:20.801Z,148.47
2019-04-20T06:12:49.883Z,146.85
2019-04-20T06:15:26.458Z,149.30
2019-04-20T06:18:13.541Z,148.05
2019-04-20T06:20:50.898Z,148.02
2019-04-20T06:23:59.329Z,149.30
2019-04-20T06:27:16.027Z,150.38
2019-04-20T06:29:31.036Z,148.17
2019-04-20T06:32:17.333Z,147.53
2019-04-20T06:34:51.323Z,148.82
2019-04-20T06:49:33.306Z,149.27
2019-04-20T06:52:24.373Z,149.05
2019-04-20T06:55:28.989Z,148.57
2019-04-20T06:57:45.462Z,149.35
2019-04-20T07:02:53.963Z,150.50
2019-04-20T07:05:25.998Z,149.47
2019-04-20T07:08:48.915Z,148.93
2019-04-20T07:11:13.532Z,149.25
2019-04-20T07:13:30.883Z,149.20
2019-04-20T07:16:21.373Z,150.68
2019-04-20T07:19:25.942Z,149.85
2019-04-20T07:22:25.327Z,151.00
2019-04-20T07:24:50.846Z,150.25
2019-04-20T07:27:22.886Z,152.30
2019-04-20T07:32:19.491Z,153.15
2019-04-20T07:34:54.021Z,152.32
2019-04-20T07:39:58.897Z,152.25
2019-04-20T07:42:32.837Z,152.47
2019-04-20T07:45:01.562Z,151.82
2019-04-20T07:47:34.476Z,157.30
2019-04-20T07:49:50.026Z,150.85
2019-04-20T07:52:02.151Z,152.47
2019-04-20T07:55:12.452Z,150.80
2019-04-20T07:57:21.542Z,151.02
2019-04-20T07:59:50.955Z,149.57
2019-04-20T08:02:48.845Z,149.87
2019-04-20T08:05:10.675Z,151.35
2019-04-20T08:07:39.208Z,152.07
2019-04-20T08:10:02.897Z,151.40
2019-04-20T08:12:55.903Z,151.82
2019-04-20T08:15:34.060Z,151.30
2019-04-20T08:17:56.352Z,151.82
2019-04-20T08:20:20.772Z,151.00
2019-04-20T08:22:55.313Z,152.40
2019-04-20T08:25:14.234Z,154.38
2019-04-20T08:27:48.816Z,152.25
2019-04-20T08:30:42.363Z,153.65
2019-04-20T08:33:19.627Z,153.10
2019-04-20T08:36:02.794Z,154.47
2019-04-20T08:38:51.130Z,154.65
2019-04-20T08:40:53.901Z,152.80
2019-04-20T08:43:38.235Z,153.53
2019-04-20T08:45:51.045Z,152.43
2019-04-20T08:48:25.762Z,155.95
2019-04-20T08:50:51.340Z,154.78
2019-04-20T08:53:27.686Z,153.35
2019-04-20T08:55:45.057Z,156.18
2019-04-20T08:58:02.702Z,154.90
2019-04-20T09:00:41.779Z,156.30
2019-04-20T09:03:15.311Z,153.30
2019-04-20T09:05:45.578Z,153.85
2019-04-20T09:08:11.021Z,152.78
2019-04-20T09:10:49.238Z,151.25
2019-04-20T09:13:15.921Z,153.25
2019-04-20T09:15:34.185Z,152.57
2019-04-20T09:18:13.940Z,153.68
2019-04-20T09:20:48.714Z,155.20
2019-04-20T09:23:36.309Z,155.03
2019-04-20T09:26:26.571Z,153.10
2019-04-20T09:28:59.297Z,154.27
2019-04-20T09:31:39.254Z,155.27
2019-04-20T09:34:40.324Z,154.40
2019-04-20T09:37:41.425Z,154.85
2019-04-20T09:40:00.936Z,153.87
2019-04-20T09:42:21.488Z,153.27
2019-04-20T09:44:55.986Z,152.95
2019-04-20T09:47:28.327Z,152.75
2019-04-20T09:50:02.717Z,152.50
2019-04-20T09:52:31.349Z,154.78
2019-04-20T09:55:03.121Z,154.23
2019-04-20T09:57:34.070Z,156.85
2019-04-20T10:00:01.712Z,155.05
2019-04-20T10:02:22.017Z,158.10
2019-04-20T10:04:43.954Z,158.68
2019-04-20T10:07:15.992Z,156.22
2019-04-20T10:09:44.853Z,157.07
2019-04-20T10:12:09.566Z,154.95
2019-04-20T10:14:36.733Z,157.12
2019-04-20T10:17:03.808Z,160.43
2019-04-20T10:19:34.652Z,158.68
2019-04-20T10:22:02.514Z,159.43
2019-04-20T10:24:30.657Z,162.92
2019-04-20T10:26:58.784Z,161.62
2019-04-20T10:29:27.890Z,165.90
2019-04-20T10:31:58.647Z,159.95
2019-04-20T10:34:24.296Z,158.07
2019-04-20T10:37:11.449Z,156.87
2019-04-20T10:39:40.558Z,160.15
2019-04-20T10:42:08.147Z,157.07
2019-04-20T10:44:36.607Z,159.15
2019-04-20T10:47:05.048Z,157.62
2019-04-20T10:49:33.375Z,166.22
2019-04-20T10:52:01.956Z,157.62
2019-04-20T10:54:32.363Z,159.30
2019-04-20T10:57:01.417Z,157.10
2019-04-20T10:59:29.814Z,154.65
2019-04-20T11:01:59.671Z,154.40
2019-04-20T11:04:28.421Z,154.47
2019-04-20T11:06:56.668Z,156.67
2019-04-20T11:09:27.324Z,155.40
2019-04-20T11:11:54.505Z,157.60
2019-04-20T11:14:28.141Z,158.72
2019-04-20T11:16:52.280Z,158.00
2019-04-20T11:19:21.123Z,159.35
2019-04-20T11:21:50.318Z,160.57
2019-04-20T11:24:32.272Z,167.80
2019-04-20T11:27:18.354Z,163.80
2019-04-20T11:29:46.773Z,164.37
2019-04-20T11:32:14.313Z,160.65
2019-04-20T11:34:42.473Z,162.88
2019-04-20T11:37:15.278Z,166.10
2019-04-20T11:39:43.159Z,164.95
2019-04-20T11:42:19.555Z,167.80
2019-04-20T11:44:50.831Z,161.62
2019-04-20T11:47:18.937Z,160.15
2019-04-20T11:49:49.497Z,161.28
2019-04-20T11:52:21.127Z,166.45
2019-04-20T11:54:54.727Z,161.65
2019-04-20T11:57:27.169Z,164.07
2019-04-20T11:59:55.038Z,164.28
2019-04-20T12:02:37.126Z,166.40
2019-04-20T12:05:19.883Z,163.45
2019-04-20T12:07:55.755Z,163.35
2019-04-20T12:10:26.389Z,165.50
2019-04-20T12:12:55.625Z,162.07
2019-04-20T12:15:32.188Z,158.00
2019-04-20T12:17:59.868Z,161.77
2019-04-20T12:20:29.058Z,163.92
2019-04-20T12:23:00.292Z,163.03
2019-04-20T12:25:28.198Z,163.87
2019-04-20T12:28:00.136Z,158.37
2019-04-20T12:30:29.968Z,159.90
2019-04-20T12:33:02.186Z,159.10
2019-04-20T12:35:32.091Z,160.82
2019-04-20T12:37:59.190Z,160.25
2019-04-20T12:40:28.378Z,158.82
2019-04-20T12:42:59.229Z,162.95
2019-04-20T12:45:33.557Z,165.20
2019-04-20T12:48:04.006Z,164.75
2019-04-20T12:50:37.344Z,162.37
2019-04-20T12:53:04.658Z,164.30
2019-04-20T12:55:32.598Z,163.90
2019-04-20T12:58:02.845Z,163.03
2019-04-20T13:00:41.711Z,161.45
2019-04-20T13:03:09.536Z,167.77
2019-04-20T13:05:38.077Z,162.50
2019-04-20T13:08:07.972Z,160.10
2019-04-20T13:10:37.629Z,163.12
2019-04-20T13:13:28.189Z,165.25
2019-04-20T13:16:08.200Z,165.00
2019-04-20T13:18:41.144Z,171.32
2019-04-20T13:21:09.298Z,165.12
2019-04-20T13:23:37.270Z,164.60
2019-04-20T13:26:09.223Z,166.90
2019-04-20T13:28:37.068Z,166.22
2019-04-20T13:31:05.986Z,162.80
2019-04-20T13:33:35.029Z,162.70
2019-04-20T13:36:04.059Z,164.70
2019-04-20T13:38:32.037Z,163.43
2019-04-20T13:40:59.860Z,163.60
2019-04-20T13:43:27.933Z,165.25
2019-04-20T13:45:55.199Z,167.80
2019-04-20T13:48:22.414Z,167.80
2019-04-20T13:50:49.759Z,161.95
2019-04-20T13:53:17.239Z,164.50
2019-04-20T13:55:45.475Z,164.85
2019-04-20T13:58:33.932Z,164.88
2019-04-20T14:01:23.370Z,165.43
2019-04-20T14:04:05.273Z,165.62
2019-04-20T14:06:33.167Z,163.95
2019-04-20T14:09:01.283Z,165.80
2019-04-20T14:11:31.542Z,163.40
2019-04-20T14:14:01.463Z,166.47
2019-04-20T14:16:27.526Z,164.10
2019-04-20T14:18:57.010Z,163.03
2019-04-20T14:21:24.245Z,166.47
2019-04-20T14:23:51.316Z,166.03
2019-04-20T14:26:18.855Z,164.32
2019-04-20T14:28:49.355Z,164.25
2019-04-20T14:31:16.774Z,162.05
2019-04-20T14:33:44.620Z,166.37
2019-04-20T14:36:13.061Z,165.07
2019-04-20T14:38:40.262Z,165.65
2019-04-20T14:41:08.460Z,165.88
2019-04-20T14:43:37.008Z,165.47
2019-04-20T14:46:05.066Z,169.85
2019-04-20T14:48:32.691Z,164.20
2019-04-20T14:50:59.823Z,163.95
2019-04-20T14:53:29.485Z,162.70
2019-04-20T14:55:59.703Z,165.47
2019-04-20T14:58:45.335Z,160.10
2019-04-20T15:01:26.862Z,162.85
2019-04-20T15:04:02.820Z,159.20
2019-04-20T15:06:23.430Z,165.92
2019-04-20T15:09:10.764Z,166.47
2019-04-20T15:11:41.752Z,164.10
2019-04-20T15:14:11.086Z,164.60
2019-04-20T15:16:38.610Z,166.43
2019-04-20T15:22:33.848Z,174.10
2019-04-20T15:25:01.420Z,207.03
2019-04-20T15:27:28.675Z,178.45
2019-04-20T15:29:56.144Z,168.00
2019-04-20T15:32:24.942Z,166.53
2019-04-20T15:34:53.105Z,166.28
2019-04-20T15:37:30.988Z,166.53
2019-04-20T15:39:59.050Z,169.40
2019-04-20T15:42:27.514Z,168.22
2019-04-20T15:44:58.132Z,168.70
2019-04-20T15:47:32.034Z,165.88
2019-04-20T15:50:07.704Z,168.45
2019-04-20T15:52:44.595Z,168.30
2019-04-20T15:55:17.001Z,163.25
2019-04-20T15:57:44.825Z,169.10
2019-04-20T16:00:14.365Z,167.60
2019-04-20T16:02:49.574Z,168.35
2019-04-20T16:05:47.215Z,163.03
2019-04-20T16:08:46.056Z,165.75
2019-04-20T16:11:13.460Z,164.55
2019-04-20T16:13:44.708Z,166.03
2019-04-20T16:16:12.162Z,168.57
2019-04-20T16:18:41.474Z,171.75
2019-04-20T16:21:15.610Z,167.30
2019-04-20T16:24:06.537Z,170.07
2019-04-20T16:26:49.617Z,166.00
2019-04-20T16:29:19.523Z,162.82
2019-04-20T16:31:49.059Z,167.70
2019-04-20T16:34:25.969Z,164.77
2019-04-20T16:36:56.456Z,163.05
2019-04-20T16:39:25.182Z,166.95
2019-04-20T16:41:52.322Z,166.28
2019-04-20T16:44:19.354Z,163.00
2019-04-20T16:46:50.180Z,161.37
2019-04-20T16:49:19.138Z,168.45
2019-04-20T16:51:47.653Z,168.05
2019-04-20T16:54:15.876Z,164.88
2019-04-20T16:56:44.535Z,166.30
2019-04-20T16:59:14.202Z,166.47
2019-04-20T17:01:42.583Z,167.20
2019-04-20T17:04:15.411Z,170.12
2019-04-20T17:06:47.778Z,166.12
2019-04-20T17:09:16.226Z,168.68
2019-04-20T17:11:43.776Z,164.07
2019-04-20T17:14:14.817Z,162.18
2019-04-20T17:16:45.946Z,162.57
2019-04-20T17:19:13.528Z,158.85
2019-04-20T17:22:15.246Z,165.90
2019-04-20T17:24:49.440Z,159.52
2019-04-20T17:27:44.619Z,159.97
2019-04-20T17:30:39.968Z,163.10
2019-04-20T17:33:13.993Z,166.35
2019-04-20T17:35:57.335Z,159.07
2019-04-20T17:38:36.170Z,169.77
2019-04-20T17:41:22.408Z,164.05
2019-04-20T17:44:05.893Z,162.10
2019-04-20T17:46:47.652Z,163.00
2019-04-20T17:49:19.735Z,162.03
2019-04-20T17:52:06.263Z,159.15
2019-04-20T17:54:27.844Z,159.82
2019-04-20T17:56:56.324Z,157.75
2019-04-20T17:59:47.226Z,160.70
2019-04-20T18:02:58.580Z,162.20
2019-04-20T18:06:03.377Z,157.45
2019-04-20T18:08:29.729Z,161.05
2019-04-20T18:10:57.331Z,160.45
2019-04-20T18:13:22.468Z,156.60
2019-04-20T18:16:12.742Z,158.85
2019-04-20T18:18:52.877Z,157.55
2019-04-20T18:21:28.646Z,157.25
2019-04-20T18:23:58.387Z,156.28
2019-04-20T18:26:48.039Z,157.43
2019-04-20T18:29:37.330Z,154.35
2019-04-20T18:32:15.632Z,153.12
2019-04-20T18:35:40.446Z,155.10
2019-04-20T18:38:07.699Z,155.40
2019-04-20T18:40:41.578Z,152.47
2019-04-20T18:43:08.225Z,155.12
2019-04-20T18:45:53.447Z,152.20
2019-04-20T18:48:24.986Z,153.80
2019-04-20T18:50:40.340Z,152.15
2019-04-20T18:53:14.789Z,153.85
2019-04-20T18:55:43.741Z,152.32
2019-04-20T18:58:06.932Z,153.30
2019-04-20T19:00:40.789Z,154.85
2019-04-20T19:03:12.035Z,152.12
2019-04-20T19:05:35.759Z,150.85
2019-04-20T19:08:08.434Z,152.93
2019-04-20T19:10:36.175Z,151.87
2019-04-20T19:13:08.105Z,151.65
2019-04-20T19:16:00.257Z,152.55
2019-04-20T19:18:50.711Z,152.65
2019-04-20T19:21:05.248Z,153.47
2019-04-20T19:23:36.666Z,151.12
2019-04-20T19:26:09.623Z,150.05
2019-04-20T19:28:42.193Z,151.32
2019-04-20T19:31:17.604Z,152.27
2019-04-20T19:33:54.696Z,152.07
2019-04-20T19:36:15.198Z,150.97
2019-04-20T19:38:43.007Z,151.93
2019-04-20T19:41:16.408Z,150.90
2019-04-20T19:43:35.773Z,151.63
2019-04-20T19:46:34.906Z,151.32
2019-04-20T19:48:39.304Z,150.45
2019-04-20T19:51:24.054Z,151.30
2019-04-20T19:53:58.733Z,151.18
2019-04-20T19:56:16.982Z,150.42
2019-04-20T19:58:49.691Z,151.47
2019-04-20T20:01:02.901Z,149.93
2019-04-20T20:03:30.499Z,151.85
2019-04-20T20:05:59.668Z,151.05
2019-04-20T20:08:29.947Z,152.43
2019-04-20T20:11:00.837Z,152.75
2019-04-20T20:13:34.584Z,153.78
2019-04-20T20:16:09.008Z,151.95
2019-04-20T20:18:39.299Z,150.50
2019-04-20T20:21:07.345Z,152.70
2019-04-20T20:23:23.905Z,152.55
2019-04-20T20:25:51.472Z,150.72
2019-04-20T20:28:32.272Z,150.78
2019-04-20T20:31:05.059Z,152.05
2019-04-20T20:33:39.636Z,151.82
2019-04-20T20:36:05.620Z,153.25
2019-04-20T20:38:33.984Z,149.60
2019-04-20T20:41:10.582Z,150.65
2019-04-20T20:43:40.745Z,151.22
2019-04-20T20:46:06.488Z,150.35
2019-04-20T20:48:38.764Z,151.45
2019-04-20T20:51:13.592Z,150.25
2019-04-20T20:53:38.733Z,149.38
2019-04-20T20:56:06.272Z,150.75
2019-04-20T20:58:43.079Z,153.25
2019-04-20T21:01:04.374Z,151.68
2019-04-20T21:03:32.188Z,150.90
2019-04-20T21:05:55.601Z,150.97
2019-04-20T21:08:23.905Z,153.38
2019-04-20T21:10:52.697Z,153.57
2019-04-20T21:13:21.466Z,151.97
2019-04-20T21:15:53.898Z,149.97
2019-04-20T21:18:36.888Z,150.22
2019-04-20T21:21:06.439Z,150.38
2019-04-20T21:23:35.301Z,151.27
2019-04-20T21:26:06.886Z,150.40
2019-04-20T21:28:36.246Z,152.10
2019-04-20T21:31:12.522Z,151.57
2019-04-20T21:33:40.113Z,149.05
2019-04-20T21:36:07.153Z,149.93
2019-04-20T21:38:39.348Z,151.30
2019-04-20T21:41:09.410Z,150.55
2019-04-20T21:43:37.285Z,150.03
2019-04-20T21:46:05.480Z,151.10
2019-04-20T21:48:49.207Z,150.35
2019-04-20T21:51:16.605Z,151.50
2019-04-20T21:53:33.375Z,151.07
2019-04-20T21:55:59.785Z,151.55
2019-04-20T21:58:33.277Z,152.27
2019-04-20T22:01:08.071Z,150.75
2019-04-20T22:03:30.000Z,151.57
2019-04-20T22:06:07.054Z,150.40
2019-04-20T22:08:39.436Z,150.62
2019-04-20T22:11:06.308Z,149.55
2019-04-20T22:13:38.891Z,150.18
2019-04-20T22:16:07.284Z,151.78
2019-04-20T22:18:46.363Z,150.97
2019-04-20T22:21:11.195Z,149.50
2019-04-20T22:23:49.237Z,149.95
2019-04-20T22:26:12.077Z,148.32
2019-04-20T22:28:29.757Z,149.12
2019-04-20T22:30:57.979Z,148.93
2019-04-20T22:33:36.568Z,149.07
2019-04-20T22:36:04.497Z,149.15
2019-04-20T22:39:07.522Z,149.35
2019-04-20T22:41:40.876Z,148.38
2019-04-20T22:44:15.158Z,150.00
2019-04-20T22:46:40.873Z,150.05
2019-04-20T22:49:26.892Z,149.53
2019-04-20T22:51:48.216Z,150.47
2019-04-20T22:54:23.267Z,151.18
2019-04-20T22:56:47.266Z,149.02
2019-04-20T22:59:12.725Z,149.55
2019-04-20T23:01:44.434Z,150.27
2019-04-20T23:04:06.394Z,148.45
2019-04-20T23:06:40.149Z,148.60
2019-04-20T23:09:10.324Z,147.70
2019-04-20T23:11:37.150Z,148.45
2019-04-20T23:14:04.930Z,148.02
2019-04-20T23:16:37.846Z,150.45
2019-04-20T23:19:02.439Z,150.42
2019-04-20T23:21:29.977Z,150.12
2019-04-20T23:24:01.585Z,150.07
2019-04-20T23:26:33.493Z,149.15
2019-04-20T23:28:58.725Z,149.32
2019-04-20T23:31:25.673Z,148.20
2019-04-20T23:33:53.959Z,147.40
2019-04-20T23:36:30.695Z,147.28
2019-04-20T23:38:54.733Z,147.55
2019-04-20T23:41:21.882Z,147.47
2019-04-20T23:44:03.815Z,148.35
2019-04-20T23:46:47.865Z,148.55
2019-04-20T23:49:34.155Z,149.90
2019-04-20T23:52:29.591Z,148.78
2019-04-20T23:54:30.230Z,148.30
2019-04-20T23:56:57.533Z,147.82
2019-04-20T23:59:32.365Z,148.20
